createdAt,value
2022-12-28T00:00:52.080Z,2.19
2022-12-28T00:03:18.611Z,2.25
2022-12-28T00:05:45.090Z,2.31
2022-12-28T00:08:11.545Z,2.37
2022-12-28T00:11:08.211Z,2.31
2022-12-28T00:13:24.456Z,2.21
2022-12-28T00:15:50.926Z,2.18
2022-12-28T00:18:17.389Z,2.10
2022-12-28T00:20:43.881Z,2.15
2022-12-28T00:23:10.334Z,2.25
2022-12-28T00:25:36.797Z,2.29
2022-12-28T00:28:03.311Z,2.32
2022-12-28T00:30:29.750Z,2.27
2022-12-28T00:32:56.184Z,2.29
2022-12-28T00:35:22.684Z,2.31
2022-12-28T00:37:49.329Z,2.31
2022-12-28T00:40:22.059Z,2.35
2022-12-28T00:42:50.489Z,2.37
2022-12-28T00:45:17.069Z,2.35
2022-12-28T00:47:43.750Z,2.38
2022-12-28T00:50:10.252Z,2.32
2022-12-28T00:52:36.664Z,2.28
2022-12-28T00:55:03.180Z,2.09
2022-12-28T00:57:30.868Z,2.03
2022-12-28T00:59:57.456Z,2.00
2022-12-28T01:02:23.961Z,2.00
2022-12-28T01:04:50.414Z,2.06
2022-12-28T01:07:16.865Z,2.04
2022-12-28T01:09:43.330Z,2.04
2022-12-28T01:12:09.754Z,2.07
2022-12-28T01:14:36.198Z,2.04
2022-12-28T01:17:02.682Z,2.09
2022-12-28T01:19:29.130Z,2.11
2022-12-28T01:21:57.965Z,2.10
2022-12-28T01:24:24.439Z,2.09
2022-12-28T01:26:50.899Z,2.05
2022-12-28T01:29:17.334Z,2.01
2022-12-28T01:31:43.842Z,2.02
2022-12-28T01:34:10.388Z,2.00
2022-12-28T01:36:36.845Z,1.93
2022-12-28T01:39:04.880Z,1.89
2022-12-28T01:41:32.339Z,1.84
2022-12-28T01:43:58.863Z,1.80
2022-12-28T01:46:32.455Z,1.78
2022-12-28T01:48:58.860Z,1.75
2022-12-28T01:51:26.524Z,1.72
2022-12-28T01:53:54.393Z,1.66
2022-12-28T01:56:21.923Z,1.61
2022-12-28T01:58:48.976Z,1.58
2022-12-28T02:01:16.065Z,1.55
2022-12-28T02:03:42.593Z,1.53
2022-12-28T02:06:11.223Z,1.51
2022-12-28T02:08:47.556Z,1.51
2022-12-28T02:11:15.772Z,1.45
2022-12-28T02:13:46.780Z,1.44
2022-12-28T02:16:13.382Z,1.43
2022-12-28T02:18:41.569Z,1.36
2022-12-28T02:21:30.107Z,1.30
2022-12-28T02:24:08.539Z,1.27
2022-12-28T02:26:41.107Z,1.23
2022-12-28T02:29:30.925Z,1.20
2022-12-28T02:32:06.321Z,1.14
2022-12-28T02:34:37.205Z,1.11
2022-12-28T02:37:07.277Z,1.10
2022-12-28T02:39:46.519Z,1.03
2022-12-28T02:42:13.912Z,0.95
2022-12-28T02:44:59.012Z,0.86
2022-12-28T02:47:43.812Z,0.81
2022-12-28T02:50:13.886Z,0.82
2022-12-28T02:52:46.100Z,0.78
2022-12-28T02:55:50.315Z,0.70
2022-12-28T02:58:31.803Z,0.70
2022-12-28T03:01:10.239Z,0.63
2022-12-28T03:03:39.765Z,0.54
2022-12-28T03:06:30.455Z,0.48
2022-12-28T03:09:10.140Z,0.48
2022-12-28T03:11:54.009Z,0.54
2022-12-28T03:14:25.816Z,0.48
2022-12-28T03:17:13.227Z,0.38
2022-12-28T03:20:03.559Z,0.32
2022-12-28T03:22:50.879Z,0.30
2022-12-28T03:25:38.416Z,0.28
2022-12-28T03:28:24.772Z,0.27
2022-12-28T03:31:06.685Z,0.26
2022-12-28T03:33:39.904Z,0.23
2022-12-28T03:36:09.185Z,0.14
2022-12-28T03:38:41.789Z,0.12
2022-12-28T03:41:12.734Z,0.06
2022-12-28T03:43:43.513Z,0.00
2022-12-28T03:46:14.530Z,0.00
2022-12-28T03:48:41.879Z,0.05
2022-12-28T03:51:08.714Z,-0.03
2022-12-28T03:53:45.452Z,-0.09
2022-12-28T03:56:13.140Z,-0.04
2022-12-28T03:58:39.701Z,-0.09
2022-12-28T04:01:06.840Z,-0.16
2022-12-28T04:03:33.752Z,-0.20
2022-12-28T04:06:00.420Z,-0.26
2022-12-28T04:08:26.918Z,-0.30
2022-12-28T04:10:53.553Z,-0.33
2022-12-28T04:13:19.994Z,-0.37
2022-12-28T04:15:56.826Z,-0.33
2022-12-28T04:18:23.305Z,-0.37
2022-12-28T04:20:49.908Z,-0.41
2022-12-28T04:23:16.357Z,-0.47
2022-12-28T04:25:42.785Z,-0.46
2022-12-28T04:28:09.284Z,-0.45
2022-12-28T04:30:35.739Z,-0.45
2022-12-28T04:33:02.210Z,-0.42
2022-12-28T04:35:28.731Z,-0.48
2022-12-28T04:37:55.164Z,-0.55
2022-12-28T04:40:21.605Z,-0.60
2022-12-28T04:43:06.778Z,-0.57
2022-12-28T04:45:33.615Z,-0.60
2022-12-28T04:48:00.580Z,-0.64
2022-12-28T04:50:27.223Z,-0.65
2022-12-28T04:52:53.676Z,-0.69
2022-12-28T04:55:32.852Z,-0.75
2022-12-28T04:58:00.394Z,-0.77
2022-12-28T05:00:26.977Z,-0.80
2022-12-28T05:02:53.562Z,-0.79
2022-12-28T05:05:20.056Z,-0.84
2022-12-28T05:07:46.531Z,-0.84
2022-12-28T05:10:12.960Z,-0.90
2022-12-28T05:12:39.471Z,-0.96
2022-12-28T05:15:06.317Z,-1.04
2022-12-28T05:17:32.775Z,-1.07
2022-12-28T05:19:59.327Z,-1.08
2022-12-28T05:22:25.761Z,-1.09
2022-12-28T05:24:52.195Z,-1.09
2022-12-28T05:27:18.671Z,-1.01
2022-12-28T05:29:45.120Z,-0.94
2022-12-28T05:32:11.549Z,-0.93
2022-12-28T05:34:39.954Z,-1.05
2022-12-28T05:37:06.351Z,-1.14
2022-12-28T05:39:32.818Z,-1.20
2022-12-28T05:42:00.802Z,-1.25
2022-12-28T05:44:27.732Z,-1.28
2022-12-28T05:46:54.457Z,-1.27
2022-12-28T05:49:21.248Z,-1.24
2022-12-28T05:51:49.152Z,-1.22
2022-12-28T05:54:15.605Z,-1.24
2022-12-28T05:56:42.040Z,-1.34
2022-12-28T05:59:08.539Z,-1.39
2022-12-28T06:01:37.449Z,-1.36
2022-12-28T06:04:05.426Z,-1.34
2022-12-28T06:06:32.816Z,-1.40
2022-12-28T06:08:59.548Z,-1.45
2022-12-28T06:11:26.934Z,-1.43
2022-12-28T06:13:53.635Z,-1.38
2022-12-28T06:16:30.609Z,-1.34
2022-12-28T06:18:57.600Z,-1.37
2022-12-28T06:21:26.623Z,-1.38
2022-12-28T06:23:54.416Z,-1.34
2022-12-28T06:26:21.731Z,-1.37
2022-12-28T06:28:48.371Z,-1.46
2022-12-28T06:31:19.403Z,-1.49
2022-12-28T06:33:46.655Z,-1.50
2022-12-28T06:36:19.363Z,-1.58
2022-12-28T06:38:46.646Z,-1.57
2022-12-28T06:41:15.067Z,-1.62
2022-12-28T06:43:42.489Z,-1.69
2022-12-28T06:46:09.489Z,-1.74
2022-12-28T06:48:36.236Z,-1.78
2022-12-28T06:51:03.970Z,-1.79
2022-12-28T06:53:35.431Z,-1.83
2022-12-28T06:56:06.345Z,-1.81
2022-12-28T06:58:33.165Z,-1.76
2022-12-28T07:01:14.058Z,-1.77
2022-12-28T07:03:40.939Z,-1.79
2022-12-28T07:06:07.460Z,-1.81
2022-12-28T07:08:34.218Z,-1.87
2022-12-28T07:11:08.380Z,-1.87
2022-12-28T07:13:35.244Z,-1.88
2022-12-28T07:16:02.340Z,-1.79
2022-12-28T07:18:28.767Z,-1.75
2022-12-28T07:21:01.990Z,-1.75
2022-12-28T07:23:30.249Z,-1.74
2022-12-28T07:26:05.371Z,-1.72
2022-12-28T07:28:31.810Z,-1.73
2022-12-28T07:30:58.289Z,-1.71
2022-12-28T07:33:24.717Z,-1.74
2022-12-28T07:35:51.132Z,-1.75
2022-12-28T07:38:21.344Z,-1.73
2022-12-28T07:40:48.035Z,-1.71
2022-12-28T07:43:14.457Z,-1.68
2022-12-28T07:45:40.997Z,-1.58
2022-12-28T07:48:07.500Z,-1.57
2022-12-28T07:50:37.835Z,-1.49
2022-12-28T07:53:04.671Z,-1.47
2022-12-28T07:55:32.060Z,-1.42
2022-12-28T07:57:58.558Z,-1.39
2022-12-28T08:00:25.012Z,-1.41
2022-12-28T08:02:54.803Z,-1.45
2022-12-28T08:05:21.258Z,-1.49
2022-12-28T08:07:47.680Z,-1.51
2022-12-28T08:10:14.181Z,-1.48
2022-12-28T08:12:40.777Z,-1.44
2022-12-28T08:15:07.549Z,-1.39
2022-12-28T08:17:34.007Z,-1.41
2022-12-28T08:20:00.471Z,-1.43
2022-12-28T08:22:26.969Z,-1.44
2022-12-28T08:24:53.425Z,-1.44
2022-12-28T08:27:19.879Z,-1.40
2022-12-28T08:29:46.308Z,-1.37
2022-12-28T08:32:12.789Z,-1.34
2022-12-28T08:34:39.235Z,-1.29
2022-12-28T08:37:05.783Z,-1.20
2022-12-28T08:39:32.351Z,-1.13
2022-12-28T08:41:58.875Z,-1.11
2022-12-28T08:44:25.322Z,-1.07
2022-12-28T08:46:54.567Z,-1.06
2022-12-28T08:49:21.034Z,-1.02
2022-12-28T08:51:47.497Z,-0.96
2022-12-28T08:54:14.833Z,-0.90
2022-12-28T08:56:42.617Z,-0.83
2022-12-28T08:59:11.088Z,-0.74
2022-12-28T09:01:44.019Z,-0.68
2022-12-28T09:04:20.185Z,-0.64
2022-12-28T09:06:46.852Z,-0.64
2022-12-28T09:09:14.377Z,-0.61
2022-12-28T09:11:41.099Z,-0.55
2022-12-28T09:14:09.041Z,-0.49
2022-12-28T09:16:36.755Z,-0.46
2022-12-28T09:19:04.656Z,-0.41
2022-12-28T09:21:34.180Z,-0.36
2022-12-28T09:24:00.952Z,-0.35
2022-12-28T09:26:28.557Z,-0.29
2022-12-28T09:28:56.299Z,-0.22
2022-12-28T09:31:23.724Z,-0.17
2022-12-28T09:36:45.825Z,-0.13
2022-12-28T09:39:14.220Z,-0.08
2022-12-28T09:41:52.767Z,-0.03
2022-12-28T09:44:22.778Z,0.03
2022-12-28T09:46:52.304Z,0.07
2022-12-28T09:49:20.895Z,0.11
2022-12-28T09:51:50.855Z,0.15
2022-12-28T09:54:17.327Z,0.16
2022-12-28T09:56:44.859Z,0.20
2022-12-28T09:59:15.432Z,0.23
2022-12-28T10:01:42.604Z,0.28
2022-12-28T10:04:11.714Z,0.33
2022-12-28T10:06:40.429Z,0.39
2022-12-28T10:09:24.574Z,0.42
2022-12-28T10:11:51.175Z,0.46
2022-12-28T10:14:26.275Z,0.50
2022-12-28T10:16:53.138Z,0.56
2022-12-28T10:19:21.110Z,0.58
2022-12-28T10:21:48.250Z,0.63
2022-12-28T10:24:34.998Z,0.68
2022-12-28T10:27:02.526Z,0.75
2022-12-28T10:29:31.255Z,0.82
2022-12-28T10:32:00.328Z,0.87
2022-12-28T10:34:33.516Z,0.92
2022-12-28T10:37:17.282Z,0.96
2022-12-28T10:39:51.654Z,0.99
2022-12-28T10:42:24.153Z,1.02
2022-12-28T10:44:51.047Z,1.07
2022-12-28T10:47:24.805Z,1.11
2022-12-28T10:52:38.255Z,1.19
2022-12-28T10:55:24.633Z,1.23
2022-12-28T10:58:27.373Z,1.30
2022-12-28T11:00:37.530Z,1.35
2022-12-28T11:03:16.891Z,1.40
2022-12-28T11:03:21.302Z,1.14
2022-12-28T11:05:44.183Z,1.44
2022-12-28T11:08:13.959Z,1.48
2022-12-28T11:10:40.572Z,1.50
2022-12-28T11:13:21.583Z,1.54
2022-12-28T11:15:48.490Z,1.60
2022-12-28T11:18:16.387Z,1.64
2022-12-28T11:20:44.966Z,1.69
2022-12-28T11:23:16.769Z,1.75
2022-12-28T11:25:43.473Z,1.79
2022-12-28T11:28:16.234Z,1.82
2022-12-28T11:30:47.051Z,1.86
2022-12-28T11:33:28.269Z,1.86
2022-12-28T11:35:59.518Z,1.91
2022-12-28T11:38:43.267Z,1.96
2022-12-28T11:41:11.233Z,1.99
2022-12-28T11:43:39.897Z,2.03
2022-12-28T11:46:26.567Z,2.09
2022-12-28T11:48:58.547Z,2.13
2022-12-28T11:51:29.959Z,2.17
2022-12-28T11:53:58.508Z,2.21
2022-12-28T11:56:44.930Z,2.25
2022-12-28T11:59:20.760Z,2.32
2022-12-28T12:01:48.055Z,2.36
2022-12-28T12:04:19.397Z,2.36
2022-12-28T12:06:48.048Z,2.41
2022-12-28T12:09:28.397Z,2.42
2022-12-28T12:11:56.059Z,2.46
2022-12-28T12:14:30.108Z,2.49
2022-12-28T12:17:03.620Z,2.55
2022-12-28T12:19:33.044Z,2.58
2022-12-28T12:22:06.692Z,2.61
2022-12-28T12:24:37.441Z,2.63
2022-12-28T12:27:39.520Z,2.68
2022-12-28T12:30:07.981Z,2.69
2022-12-28T12:32:37.467Z,2.68
2022-12-28T12:35:05.845Z,2.67
2022-12-28T12:37:47.499Z,2.71
2022-12-28T12:40:26.110Z,2.74
2022-12-28T12:42:58.974Z,2.73
2022-12-28T12:45:31.219Z,2.69
2022-12-28T12:48:00.847Z,2.72
2022-12-28T12:50:57.716Z,2.66
2022-12-28T12:53:36.148Z,2.74
2022-12-28T12:56:17.882Z,2.75
2022-12-28T12:58:44.308Z,2.79
2022-12-28T13:01:26.189Z,2.84
2022-12-28T13:03:55.241Z,2.85
2022-12-28T13:06:23.990Z,2.88
2022-12-28T13:09:05.091Z,2.89
2022-12-28T13:11:35.557Z,2.93
2022-12-28T13:14:02.321Z,2.93
2022-12-28T13:16:29.743Z,2.94
2022-12-28T13:19:06.581Z,2.94
2022-12-28T13:21:43.546Z,2.96
2022-12-28T13:24:23.269Z,2.95
2022-12-28T13:26:50.077Z,2.94
2022-12-28T13:29:20.751Z,2.95
2022-12-28T13:31:49.986Z,2.95
2022-12-28T13:34:18.404Z,2.90
2022-12-28T13:36:58.605Z,2.90
2022-12-28T13:39:28.962Z,2.89
2022-12-28T13:42:00.290Z,2.87
2022-12-28T13:44:38.985Z,2.89
2022-12-28T13:47:25.679Z,2.88
2022-12-28T13:50:27.570Z,2.86
2022-12-28T13:53:02.370Z,2.91
2022-12-28T13:55:30.597Z,2.92
2022-12-28T13:58:00.125Z,2.93
2022-12-28T14:00:27.989Z,2.90
2022-12-28T14:02:55.389Z,2.88
2022-12-28T14:05:24.095Z,2.89
2022-12-28T14:07:51.363Z,2.79
2022-12-28T14:10:18.367Z,2.74
2022-12-28T14:12:45.786Z,2.68
2022-12-28T14:15:12.751Z,2.67
2022-12-28T14:17:40.248Z,2.65
2022-12-28T14:20:07.178Z,2.72
2022-12-28T14:22:35.541Z,2.76
2022-12-28T14:25:15.597Z,2.78
2022-12-28T14:27:56.969Z,2.74
2022-12-28T14:30:31.830Z,2.64
2022-12-28T14:33:02.203Z,2.60
2022-12-28T14:35:28.936Z,2.58
2022-12-28T14:37:57.375Z,2.52
2022-12-28T14:40:26.859Z,2.51
2022-12-28T14:42:54.065Z,2.44
2022-12-28T14:45:23.785Z,2.41
2022-12-28T14:47:56.650Z,2.36
2022-12-28T14:50:28.127Z,2.42
2022-12-28T14:53:18.311Z,2.43
2022-12-28T14:55:53.689Z,2.47
2022-12-28T14:58:22.416Z,2.50
2022-12-28T15:00:59.613Z,2.52
2022-12-28T15:03:29.297Z,2.55
2022-12-28T15:05:57.057Z,2.52
2022-12-28T15:08:24.420Z,2.41
2022-12-28T15:10:53.251Z,2.43
2022-12-28T15:13:20.428Z,2.48
2022-12-28T15:15:56.765Z,2.47
2022-12-28T15:18:23.325Z,2.46
2022-12-28T15:20:50.081Z,2.46
2022-12-28T15:23:16.577Z,2.42
2022-12-28T15:25:43.055Z,2.35
2022-12-28T15:28:09.477Z,2.37
2022-12-28T15:30:38.891Z,2.40
2022-12-28T15:33:05.368Z,2.38
2022-12-28T15:35:32.399Z,2.37
2022-12-28T15:37:58.838Z,2.32
2022-12-28T15:40:25.394Z,2.33
2022-12-28T15:42:51.953Z,2.32
2022-12-28T15:45:18.472Z,2.34
2022-12-28T15:47:44.967Z,2.32
2022-12-28T15:50:11.888Z,2.26
2022-12-28T15:52:38.368Z,2.23
2022-12-28T15:55:05.414Z,2.15
2022-12-28T15:57:31.933Z,2.14
2022-12-28T15:59:58.391Z,2.11
2022-12-28T16:02:24.987Z,2.10
2022-12-28T16:04:51.587Z,2.06
2022-12-28T16:07:19.341Z,2.06
2022-12-28T16:09:46.141Z,2.01
2022-12-28T16:12:17.272Z,2.03
2022-12-28T16:14:45.294Z,2.01
2022-12-28T16:17:11.777Z,1.96
2022-12-28T16:19:38.227Z,1.89
2022-12-28T16:22:04.674Z,1.84
2022-12-28T16:24:31.156Z,1.79
2022-12-28T16:26:57.573Z,1.78
2022-12-28T16:29:24.072Z,1.75
2022-12-28T16:31:52.426Z,1.74
2022-12-28T16:34:19.011Z,1.75
2022-12-28T16:36:46.421Z,1.73
2022-12-28T16:39:14.642Z,1.71
2022-12-28T16:41:41.252Z,1.66
2022-12-28T16:44:12.108Z,1.62
2022-12-28T16:46:38.696Z,1.60
2022-12-28T16:49:05.227Z,1.55
2022-12-28T16:51:31.670Z,1.49
2022-12-28T16:53:58.227Z,1.45
2022-12-28T16:56:24.694Z,1.41
2022-12-28T16:58:54.909Z,1.40
2022-12-28T17:01:21.542Z,1.41
2022-12-28T17:03:48.049Z,1.39
2022-12-28T17:06:14.614Z,1.37
2022-12-28T17:08:41.044Z,1.36
2022-12-28T17:11:09.338Z,1.33
2022-12-28T17:13:36.362Z,1.30
2022-12-28T17:16:02.952Z,1.27
2022-12-28T17:18:29.445Z,1.27
2022-12-28T17:21:00.481Z,1.24
2022-12-28T17:23:29.733Z,1.19
2022-12-28T17:25:56.211Z,1.11
2022-12-28T17:28:22.776Z,1.08
2022-12-28T17:30:49.360Z,1.09
2022-12-28T17:33:16.588Z,1.07
2022-12-28T17:35:43.049Z,1.01
2022-12-28T17:38:09.703Z,0.99
2022-12-28T17:40:38.366Z,0.94
2022-12-28T17:43:04.788Z,0.92
2022-12-28T17:45:31.250Z,0.89
2022-12-28T17:47:57.679Z,0.86
2022-12-28T17:50:24.146Z,0.83
2022-12-28T17:52:50.570Z,0.88
2022-12-28T17:55:17.086Z,0.87
2022-12-28T17:57:43.584Z,0.91
2022-12-28T18:00:10.570Z,0.90
2022-12-28T18:02:37.435Z,0.88
2022-12-28T18:05:04.130Z,0.85
2022-12-28T18:07:30.575Z,0.81
2022-12-28T18:09:57.014Z,0.83
2022-12-28T18:12:23.459Z,0.89
2022-12-28T18:14:50.394Z,0.90
2022-12-28T18:17:19.279Z,0.95
2022-12-28T18:19:45.975Z,0.99
2022-12-28T18:22:12.410Z,1.00
2022-12-28T18:24:38.843Z,1.00
2022-12-28T18:27:05.324Z,1.00
2022-12-28T18:29:31.754Z,0.91
2022-12-28T18:31:58.200Z,0.87
2022-12-28T18:34:24.761Z,0.84
2022-12-28T18:36:51.214Z,0.86
2022-12-28T18:39:17.656Z,0.82
2022-12-28T18:41:44.235Z,0.83
2022-12-28T18:44:10.741Z,0.80
2022-12-28T18:46:37.333Z,0.83
2022-12-28T18:49:03.921Z,0.79
2022-12-28T18:51:30.434Z,0.78
2022-12-28T18:53:56.958Z,0.81
2022-12-28T18:56:23.376Z,0.83
2022-12-28T18:58:52.079Z,0.80
2022-12-28T19:01:55.792Z,0.79
2022-12-28T19:04:08.112Z,0.84
2022-12-28T19:06:35.061Z,0.86
2022-12-28T19:09:02.045Z,0.86
2022-12-28T19:11:28.714Z,0.83
2022-12-28T19:13:55.384Z,0.81
2022-12-28T19:16:27.144Z,0.80
2022-12-28T19:18:57.341Z,0.82
2022-12-28T19:21:47.084Z,0.81
2022-12-28T19:24:15.539Z,0.81
2022-12-28T19:26:42.108Z,0.81
2022-12-28T19:29:11.615Z,0.82
2022-12-28T19:31:38.406Z,0.77
2022-12-28T19:34:04.883Z,0.79
2022-12-28T19:36:31.482Z,0.77
2022-12-28T19:38:57.953Z,0.74
2022-12-28T19:41:24.946Z,0.75
2022-12-28T19:43:51.396Z,0.72
2022-12-28T19:46:22.261Z,0.70
2022-12-28T19:48:51.987Z,0.67
2022-12-28T19:51:18.479Z,0.68
2022-12-28T19:53:44.913Z,0.70
2022-12-28T19:56:12.171Z,0.69
2022-12-28T19:58:39.524Z,0.71
2022-12-28T20:01:07.190Z,0.70
2022-12-28T20:03:34.392Z,0.69
2022-12-28T20:06:07.127Z,0.68
2022-12-28T20:08:34.246Z,0.70
2022-12-28T20:11:03.898Z,0.74
2022-12-28T20:13:30.876Z,0.71
2022-12-28T20:15:57.455Z,0.76
2022-12-28T20:18:23.996Z,0.75
2022-12-28T20:21:18.544Z,0.78
2022-12-28T20:23:37.030Z,0.77
2022-12-28T20:26:03.722Z,0.74
2022-12-28T20:28:30.251Z,0.75
2022-12-28T20:30:59.802Z,0.74
2022-12-28T20:33:26.301Z,0.72
2022-12-28T20:35:59.700Z,0.61
2022-12-28T20:38:26.861Z,0.60
2022-12-28T20:41:08.437Z,0.63
2022-12-28T20:43:35.403Z,0.66
2022-12-28T20:46:02.253Z,0.66
2022-12-28T20:48:29.836Z,0.66
2022-12-28T20:50:57.357Z,0.64
2022-12-28T20:53:23.925Z,0.62
2022-12-28T20:55:50.470Z,0.65
2022-12-28T20:58:16.919Z,0.67
2022-12-28T21:00:43.394Z,0.68
2022-12-28T21:03:09.916Z,0.69
2022-12-28T21:05:36.332Z,0.68
2022-12-28T21:08:02.814Z,0.67
2022-12-28T21:10:29.245Z,0.71
2022-12-28T21:12:55.717Z,0.72
2022-12-28T21:15:22.154Z,0.71
2022-12-28T21:17:48.611Z,0.66
2022-12-28T21:20:15.151Z,0.65
2022-12-28T21:22:41.589Z,0.68
2022-12-28T21:25:08.478Z,0.62
2022-12-28T21:27:34.913Z,0.67
2022-12-28T21:30:01.363Z,0.65
2022-12-28T21:32:27.916Z,0.64
2022-12-28T21:34:54.406Z,0.57
2022-12-28T21:37:36.294Z,0.54
2022-12-28T21:40:04.400Z,0.54
2022-12-28T21:42:30.959Z,0.54
2022-12-28T21:44:57.512Z,0.54
2022-12-28T21:47:23.987Z,0.58
2022-12-28T21:49:50.470Z,0.55
2022-12-28T21:52:16.933Z,0.52
2022-12-28T21:54:43.401Z,0.49
2022-12-28T21:57:11.057Z,0.49
2022-12-28T21:59:37.622Z,0.48
2022-12-28T22:02:31.258Z,0.47
2022-12-28T22:05:16.192Z,0.40
2022-12-28T22:07:42.665Z,0.42
2022-12-28T22:10:27.818Z,0.43
2022-12-28T22:12:54.452Z,0.36
2022-12-28T22:15:41.072Z,0.29
2022-12-28T22:18:12.777Z,0.28
2022-12-28T22:20:46.226Z,0.30
2022-12-28T22:23:13.072Z,0.29
2022-12-28T22:25:39.492Z,0.30
2022-12-28T22:28:06.498Z,0.35
2022-12-28T22:30:34.627Z,0.29
2022-12-28T22:33:01.095Z,0.30
2022-12-28T22:35:27.615Z,0.32
2022-12-28T22:37:54.200Z,0.33
2022-12-28T22:40:20.972Z,0.28
2022-12-28T22:42:48.856Z,0.27
2022-12-28T22:45:16.820Z,0.30
2022-12-28T22:47:43.669Z,0.30
2022-12-28T22:50:12.170Z,0.32
2022-12-28T22:52:38.730Z,0.25
2022-12-28T22:55:05.425Z,0.26
2022-12-28T22:57:31.891Z,0.27
2022-12-28T22:59:58.356Z,0.20
2022-12-28T23:02:24.967Z,0.25
2022-12-28T23:04:51.621Z,0.28
2022-12-28T23:07:18.132Z,0.32
2022-12-28T23:09:44.628Z,0.33
2022-12-28T23:12:11.210Z,0.32
2022-12-28T23:14:56.235Z,0.31
2022-12-28T23:17:23.831Z,0.31
2022-12-28T23:20:09.206Z,0.30
2022-12-28T23:23:10.960Z,0.28
2022-12-28T23:25:57.761Z,0.24
2022-12-28T23:28:24.270Z,0.23
2022-12-28T23:30:51.311Z,0.19
2022-12-28T23:33:18.097Z,0.21
2022-12-28T23:35:44.814Z,0.20
2022-12-28T23:38:11.537Z,0.20
2022-12-28T23:40:41.498Z,0.23
2022-12-28T23:43:08.191Z,0.22
2022-12-28T23:45:35.144Z,0.17
2022-12-28T23:48:01.719Z,0.15
2022-12-28T23:50:28.136Z,0.11
2022-12-28T23:52:54.585Z,0.20
2022-12-28T23:55:21.041Z,0.23
2022-12-28T23:57:47.509Z,0.24
